createdAt,value
2023-01-18T00:00:34.259Z,4.87
2023-01-18T00:05:45.228Z,4.83
2023-01-18T00:11:07.302Z,5.17
2023-01-18T00:13:34.112Z,5.40
2023-01-18T00:16:04.315Z,4.87
2023-01-18T00:18:31.125Z,5.47
2023-01-18T00:23:51.978Z,4.33
2023-01-18T00:26:18.603Z,4.50
2023-01-18T00:28:45.368Z,4.50
2023-01-18T00:31:12.596Z,4.47
2023-01-18T00:33:39.303Z,5.03
2023-01-18T00:36:05.988Z,5.13
2023-01-18T00:38:32.612Z,4.40
2023-01-18T00:40:59.220Z,4.17
2023-01-18T00:43:41.218Z,4.33
2023-01-18T00:46:08.705Z,4.40
2023-01-18T00:48:35.521Z,5.23
2023-01-18T00:51:02.225Z,5.33
2023-01-18T00:56:13.897Z,4.63
2023-01-18T00:58:40.580Z,4.80
2023-01-18T01:01:07.403Z,5.37
2023-01-18T01:06:44.871Z,5.87
2023-01-18T01:12:17.326Z,6.07
2023-01-18T01:18:08.625Z,5.67
2023-01-18T01:20:54.583Z,6.10
2023-01-18T01:23:43.383Z,6.40
2023-01-18T01:26:13.235Z,4.53
2023-01-18T01:28:52.467Z,6.13
2023-01-18T01:31:19.252Z,6.87
2023-01-18T01:33:45.979Z,6.10
2023-01-18T01:36:13.838Z,7.07
2023-01-18T01:38:43.361Z,7.27
2023-01-18T01:41:30.645Z,7.10
2023-01-18T02:18:52.878Z,8.23
2023-01-18T02:21:20.401Z,7.80
2023-01-18T02:23:53.111Z,6.17
2023-01-18T02:26:25.764Z,8.10
2023-01-18T02:29:06.015Z,7.43
2023-01-18T02:31:34.620Z,8.03
2023-01-18T02:34:01.192Z,8.10
2023-01-18T02:36:31.907Z,7.57
2023-01-18T02:39:00.908Z,7.90
2023-01-18T02:41:52.526Z,8.50
2023-01-18T02:44:38.956Z,7.33
2023-01-18T02:47:05.613Z,7.60
2023-01-18T02:49:32.576Z,7.43
2023-01-18T02:52:02.520Z,7.23
2023-01-18T02:54:29.135Z,7.63
2023-01-18T02:56:55.749Z,7.90
2023-01-18T02:59:23.587Z,7.80
2023-01-18T03:02:10.062Z,7.67
2023-01-18T03:04:36.707Z,7.67
2023-01-18T03:07:09.325Z,9.20
2023-01-18T03:09:35.953Z,9.13
2023-01-18T03:12:20.747Z,8.30
2023-01-18T03:18:08.735Z,7.07
2023-01-18T03:20:35.898Z,7.83
2023-01-18T03:23:31.854Z,7.47
2023-01-18T03:29:04.716Z,8.73
2023-01-18T03:31:59.097Z,8.73
2023-01-18T03:34:27.322Z,7.80
2023-01-18T03:36:54.087Z,8.23
2023-01-18T03:39:23.947Z,8.67
2023-01-18T03:41:52.251Z,9.13
2023-01-18T03:47:19.314Z,8.80
2023-01-18T03:52:38.029Z,9.73
2023-01-18T03:57:59.716Z,9.30
2023-01-18T04:00:26.741Z,9.07
2023-01-18T04:02:53.515Z,8.77
2023-01-18T04:05:20.164Z,9.73
2023-01-18T04:10:31.182Z,10.50
2023-01-18T04:15:41.932Z,10.27
2023-01-18T04:18:08.608Z,10.83
2023-01-18T04:20:35.280Z,11.70
2023-01-18T04:23:01.889Z,13.80
2023-01-18T04:25:28.625Z,11.90
2023-01-18T04:27:55.220Z,12.63
2023-01-18T04:30:21.904Z,10.80
2023-01-18T04:32:49.214Z,16.47
2023-01-18T04:35:15.935Z,12.93
2023-01-18T04:37:42.559Z,12.00
2023-01-18T04:40:10.141Z,9.73
2023-01-18T04:42:36.748Z,9.77
2023-01-18T04:45:03.432Z,9.10
2023-01-18T04:47:30.153Z,9.83
2023-01-18T04:49:57.763Z,11.60
2023-01-18T04:52:25.329Z,9.30
2023-01-18T04:54:52.101Z,8.47
2023-01-18T04:57:18.742Z,10.90
2023-01-18T04:59:46.115Z,10.37
2023-01-18T05:04:57.423Z,11.13
2023-01-18T05:10:09.387Z,9.37
2023-01-18T05:12:36.017Z,8.00
2023-01-18T05:15:02.660Z,8.80
2023-01-18T05:17:30.574Z,9.30
2023-01-18T05:19:57.264Z,8.80
2023-01-18T05:22:23.924Z,11.80
2023-01-18T05:24:50.589Z,12.57
2023-01-18T05:27:17.277Z,11.00
2023-01-18T05:29:44.177Z,10.80
2023-01-18T05:32:11.413Z,10.23
2023-01-18T05:34:38.088Z,10.97
2023-01-18T05:37:04.702Z,12.57
2023-01-18T05:39:31.268Z,10.63
2023-01-18T05:42:00.114Z,9.40
2023-01-18T05:44:26.947Z,9.30
2023-01-18T05:46:53.611Z,10.80
2023-01-18T05:49:20.360Z,10.27
2023-01-18T05:51:46.956Z,10.23
2023-01-18T05:54:13.747Z,11.43
2023-01-18T05:56:40.490Z,11.33
2023-01-18T05:59:07.147Z,8.30
2023-01-18T06:01:33.917Z,10.93
2023-01-18T06:04:00.690Z,9.97
2023-01-18T06:06:27.448Z,10.57
2023-01-18T06:08:54.096Z,9.47
2023-01-18T06:11:20.798Z,9.60
2023-01-18T06:13:47.495Z,10.03
2023-01-18T06:16:14.673Z,8.73
2023-01-18T06:18:41.694Z,10.63
2023-01-18T06:21:09.566Z,9.80
2023-01-18T06:23:36.309Z,9.73
2023-01-18T06:26:02.965Z,10.30
2023-01-18T06:28:30.851Z,10.50
2023-01-18T06:30:57.628Z,10.33
2023-01-18T06:33:24.458Z,9.83
2023-01-18T06:35:51.116Z,11.20
2023-01-18T06:38:17.823Z,12.33
2023-01-18T06:40:44.545Z,12.10
2023-01-18T06:43:14.132Z,9.93
2023-01-18T06:45:41.414Z,10.43
2023-01-18T06:48:08.145Z,10.17
2023-01-18T06:50:34.839Z,8.57
2023-01-18T06:53:01.550Z,10.77
2023-01-18T06:55:28.377Z,9.43
2023-01-18T06:57:56.232Z,13.47
2023-01-18T07:00:23.637Z,15.17
2023-01-18T07:02:51.266Z,12.73
2023-01-18T07:05:17.964Z,14.53
2023-01-18T07:07:45.799Z,15.10
2023-01-18T07:10:14.332Z,17.40
2023-01-18T07:12:43.280Z,23.80
2023-01-18T07:15:21.071Z,27.03
2023-01-18T07:17:50.492Z,25.70
2023-01-18T07:20:17.359Z,23.67
2023-01-18T07:22:44.023Z,23.80
2023-01-18T07:25:13.716Z,23.33
2023-01-18T07:27:43.194Z,20.83
2023-01-18T07:30:12.439Z,19.80
2023-01-18T07:32:39.361Z,19.10
2023-01-18T07:35:06.135Z,18.83
2023-01-18T07:37:33.767Z,16.87
2023-01-18T07:40:00.430Z,18.80
2023-01-18T07:42:27.073Z,18.00
2023-01-18T07:44:53.649Z,17.63
2023-01-18T07:47:20.326Z,18.30
2023-01-18T07:49:46.949Z,18.80
2023-01-18T07:52:13.650Z,18.20
2023-01-18T07:57:25.855Z,16.13
2023-01-18T07:59:52.758Z,22.77
2023-01-18T08:02:19.435Z,21.10
2023-01-18T08:04:49.998Z,17.83
2023-01-18T08:10:02.299Z,15.43
2023-01-18T08:15:13.258Z,18.33
2023-01-18T08:17:39.843Z,17.27
2023-01-18T08:20:09.398Z,18.23
2023-01-18T08:22:36.540Z,18.47
2023-01-18T08:25:03.539Z,18.33
2023-01-18T08:27:30.228Z,20.63
2023-01-18T08:29:57.272Z,17.93
2023-01-18T08:32:24.019Z,17.40
2023-01-18T08:34:50.736Z,16.73
2023-01-18T08:37:17.385Z,16.50
2023-01-18T08:39:43.998Z,16.73
2023-01-18T08:42:13.423Z,16.10
2023-01-18T08:44:40.086Z,16.57
2023-01-18T08:47:06.981Z,15.87
2023-01-18T08:49:34.141Z,18.63
2023-01-18T08:52:00.972Z,16.80
2023-01-18T08:54:27.651Z,16.23
2023-01-18T08:56:54.310Z,16.27
2023-01-18T08:59:21.256Z,16.20
2023-01-18T09:01:48.188Z,16.27
2023-01-18T09:04:14.793Z,20.83
2023-01-18T09:06:41.521Z,17.87
2023-01-18T09:09:08.262Z,16.17
2023-01-18T09:11:35.184Z,16.37
2023-01-18T09:14:02.331Z,14.87
2023-01-18T09:16:29.686Z,15.70
2023-01-18T09:18:56.707Z,15.33
2023-01-18T09:21:23.640Z,15.10
2023-01-18T09:23:51.555Z,15.63
2023-01-18T09:26:20.737Z,15.43
2023-01-18T09:28:47.871Z,16.77
2023-01-18T09:34:17.523Z,18.70
2023-01-18T09:36:45.152Z,17.60
2023-01-18T09:39:11.908Z,20.13
2023-01-18T09:41:39.225Z,19.93
2023-01-18T09:44:07.079Z,21.67
2023-01-18T09:46:35.440Z,23.30
2023-01-18T09:49:02.759Z,27.13
2023-01-18T09:51:34.364Z,27.17
2023-01-18T09:54:19.966Z,24.93
2023-01-18T09:56:47.880Z,23.23
2023-01-18T09:59:21.084Z,23.13
2023-01-18T10:01:48.242Z,23.13
2023-01-18T10:07:02.530Z,21.63
2023-01-18T10:09:30.379Z,26.37
2023-01-18T10:12:01.399Z,32.63
2023-01-18T10:14:37.040Z,29.10
2023-01-18T10:17:05.089Z,27.90
2023-01-18T10:19:32.004Z,25.23
2023-01-18T10:22:00.949Z,22.10
2023-01-18T10:24:29.279Z,19.90
2023-01-18T10:26:59.313Z,18.67
2023-01-18T10:29:34.848Z,28.17
2023-01-18T10:32:03.443Z,14.47
2023-01-18T10:34:31.723Z,13.73
2023-01-18T10:37:02.923Z,13.57
2023-01-18T10:39:36.629Z,11.83
2023-01-18T10:42:06.253Z,9.83
2023-01-18T10:44:33.780Z,39.43
2023-01-18T10:47:01.261Z,22.43
2023-01-18T10:52:21.999Z,14.87
2023-01-18T10:57:47.845Z,19.87
2023-01-18T11:03:05.454Z,12.43
2023-01-18T11:05:38.475Z,14.87
2023-01-18T11:08:12.262Z,11.43
2023-01-18T11:13:25.430Z,11.87
2023-01-18T11:16:05.380Z,10.87
2023-01-18T11:18:32.238Z,11.17
2023-01-18T11:20:59.780Z,11.07
2023-01-18T11:23:30.290Z,10.70
2023-01-18T11:26:05.752Z,10.73
2023-01-18T11:28:35.471Z,11.27
2023-01-18T11:31:02.447Z,10.10
2023-01-18T11:33:31.073Z,9.70
2023-01-18T11:38:43.879Z,9.57
2023-01-18T11:41:13.946Z,8.80
2023-01-18T11:43:42.359Z,10.00
2023-01-18T11:46:27.834Z,8.53
2023-01-18T11:49:04.676Z,8.27
2023-01-18T11:54:16.275Z,8.20
2023-01-18T11:59:31.155Z,8.67
2023-01-18T12:02:16.474Z,8.73
2023-01-18T12:04:43.273Z,8.93
2023-01-18T12:07:09.915Z,8.03
2023-01-18T12:09:53.078Z,9.10
2023-01-18T12:12:33.273Z,8.40
2023-01-18T12:15:00.366Z,8.20
2023-01-18T12:17:46.215Z,8.97
2023-01-18T12:20:23.410Z,8.67
2023-01-18T12:22:50.011Z,8.83
2023-01-18T12:28:17.806Z,8.87
2023-01-18T12:30:54.997Z,9.33
2023-01-18T12:33:34.378Z,9.23
2023-01-18T12:36:13.194Z,8.90
2023-01-18T12:38:51.985Z,8.27
2023-01-18T12:41:25.572Z,9.37
2023-01-18T12:44:02.436Z,8.90
2023-01-18T12:46:29.593Z,8.80
2023-01-18T12:49:00.755Z,8.33
2023-01-18T12:51:30.055Z,8.90
2023-01-18T12:54:01.652Z,8.47
2023-01-18T12:56:41.495Z,8.53
2023-01-18T12:59:11.174Z,8.33
2023-01-18T13:01:44.797Z,8.20
2023-01-18T13:04:17.000Z,7.93
2023-01-18T13:06:43.768Z,7.93
2023-01-18T13:11:58.614Z,7.80
2023-01-18T13:14:43.884Z,7.33
2023-01-18T13:17:21.337Z,7.30
2023-01-18T13:19:54.736Z,6.83
2023-01-18T13:22:28.599Z,6.60
2023-01-18T13:25:01.891Z,6.80
2023-01-18T13:27:28.575Z,6.53
2023-01-18T13:29:55.231Z,6.90
2023-01-18T13:35:20.394Z,7.17
2023-01-18T13:37:48.685Z,6.87
2023-01-18T13:40:22.472Z,6.50
2023-01-18T13:42:50.300Z,6.13
2023-01-18T13:45:17.301Z,6.37
2023-01-18T13:47:49.962Z,6.53
2023-01-18T13:53:12.774Z,6.80
2023-01-18T13:55:54.507Z,6.13
2023-01-18T13:58:24.885Z,6.37
2023-01-18T14:00:51.947Z,6.67
2023-01-18T14:03:20.909Z,6.87
2023-01-18T14:05:48.791Z,6.80
2023-01-18T14:08:19.001Z,7.37
2023-01-18T14:13:42.724Z,7.33
2023-01-18T14:16:12.968Z,7.17
2023-01-18T14:18:39.767Z,6.90
2023-01-18T14:21:12.593Z,6.67
2023-01-18T14:23:58.248Z,7.13
2023-01-18T14:26:26.985Z,7.20
2023-01-18T14:29:04.506Z,7.70
2023-01-18T14:31:32.628Z,7.10
2023-01-18T14:33:59.343Z,8.27
2023-01-18T14:36:27.035Z,7.60
2023-01-18T14:39:06.846Z,7.90
2023-01-18T14:41:33.528Z,8.30
2023-01-18T14:44:00.168Z,8.83
2023-01-18T14:46:27.383Z,7.90
2023-01-18T14:48:54.867Z,8.50
2023-01-18T14:51:24.923Z,8.77
2023-01-18T14:53:56.402Z,8.47
2023-01-18T14:56:24.484Z,8.10
2023-01-18T14:58:55.190Z,7.83
2023-01-18T15:01:29.331Z,8.23
2023-01-18T15:03:56.471Z,7.23
2023-01-18T15:09:28.281Z,8.33
2023-01-18T15:11:58.762Z,8.53
2023-01-18T15:14:26.017Z,8.50
2023-01-18T15:16:53.327Z,8.63
2023-01-18T15:19:33.596Z,8.37
2023-01-18T15:22:04.935Z,8.03
2023-01-18T15:24:35.104Z,10.23
2023-01-18T15:27:02.672Z,8.80
2023-01-18T15:29:34.213Z,11.27
2023-01-18T15:32:14.154Z,32.07
2023-01-18T15:34:42.299Z,11.70
2023-01-18T15:37:12.337Z,16.60
2023-01-18T15:39:47.814Z,12.27
2023-01-18T15:42:14.555Z,12.40
2023-01-18T15:44:47.871Z,11.03
2023-01-18T15:47:22.529Z,26.80
2023-01-18T15:49:49.653Z,44.43
2023-01-18T15:52:16.593Z,27.17
2023-01-18T15:54:43.504Z,17.63
2023-01-18T15:57:14.453Z,28.40
2023-01-18T15:59:41.908Z,20.70
2023-01-18T16:02:09.208Z,76.67
2023-01-18T16:04:36.129Z,27.50
2023-01-18T16:07:38.194Z,27.50
2023-01-18T16:10:09.028Z,23.20
2023-01-18T16:12:35.854Z,41.77
2023-01-18T16:15:03.648Z,47.70
2023-01-18T16:17:31.994Z,19.20
2023-01-18T16:19:59.732Z,119.90
2023-01-18T16:22:29.836Z,55.07
2023-01-18T16:24:57.276Z,64.20
2023-01-18T16:27:24.646Z,15.97
2023-01-18T16:29:54.955Z,17.57
2023-01-18T16:32:21.765Z,14.43
2023-01-18T16:34:48.599Z,12.83
2023-01-18T16:37:15.271Z,15.97
2023-01-18T16:39:41.903Z,16.30
2023-01-18T16:42:09.533Z,16.73
2023-01-18T16:44:36.414Z,19.80
2023-01-18T16:47:06.052Z,31.53
2023-01-18T16:49:32.849Z,24.03
2023-01-18T16:52:00.187Z,16.33
2023-01-18T16:57:20.744Z,20.10
2023-01-18T17:02:32.736Z,22.53
2023-01-18T17:04:59.443Z,16.07
2023-01-18T17:07:26.089Z,13.77
2023-01-18T17:09:53.502Z,17.80
2023-01-18T17:12:20.847Z,12.70
2023-01-18T17:14:47.624Z,12.60
2023-01-18T17:17:14.256Z,14.33
2023-01-18T17:19:43.768Z,11.93
2023-01-18T17:22:10.505Z,16.93
2023-01-18T17:24:37.260Z,13.00
2023-01-18T17:27:04.409Z,12.00
2023-01-18T17:29:31.108Z,11.93
2023-01-18T17:31:57.973Z,10.73
2023-01-18T17:34:28.517Z,10.93
2023-01-18T17:36:56.602Z,14.60
2023-01-18T17:39:28.166Z,15.20
2023-01-18T17:42:04.620Z,9.97
2023-01-18T17:44:36.737Z,16.07
2023-01-18T17:47:03.851Z,15.93
2023-01-18T17:49:31.542Z,10.63
2023-01-18T17:51:58.342Z,10.20
2023-01-18T17:54:25.265Z,13.63
2023-01-18T17:59:37.471Z,10.43
2023-01-18T18:02:04.416Z,9.90
2023-01-18T18:04:31.539Z,10.97
2023-01-18T18:06:58.675Z,11.03
2023-01-18T18:12:11.090Z,9.63
2023-01-18T18:17:23.584Z,8.50
2023-01-18T18:22:34.942Z,8.93
2023-01-18T18:27:47.289Z,8.53
2023-01-18T18:30:14.893Z,8.03
2023-01-18T18:32:42.166Z,7.70
2023-01-18T18:35:23.779Z,7.93
2023-01-18T18:37:52.269Z,7.67
2023-01-18T18:40:19.347Z,7.90
2023-01-18T18:42:56.482Z,9.83
2023-01-18T18:48:13.518Z,10.33
2023-01-18T18:50:40.427Z,11.97
2023-01-18T18:53:07.762Z,9.73
2023-01-18T18:55:34.541Z,9.60
2023-01-18T19:00:46.482Z,9.10
2023-01-18T19:03:16.225Z,8.33
2023-01-18T19:05:43.088Z,8.93
2023-01-18T19:08:09.893Z,10.30
2023-01-18T19:10:39.374Z,8.60
2023-01-18T19:13:07.572Z,8.40
2023-01-18T19:15:34.460Z,8.53
2023-01-18T19:18:01.295Z,9.30
2023-01-18T19:20:28.134Z,9.37
2023-01-18T19:22:54.973Z,14.13
2023-01-18T19:25:21.964Z,12.13
2023-01-18T19:27:49.214Z,12.87
2023-01-18T19:30:18.787Z,14.53
2023-01-18T19:32:47.318Z,11.37
2023-01-18T19:35:14.170Z,12.00
2023-01-18T19:37:40.833Z,11.03
2023-01-18T19:40:09.172Z,12.97
2023-01-18T19:42:35.833Z,10.37
2023-01-18T19:45:04.777Z,10.97
2023-01-18T19:47:31.757Z,11.57
2023-01-18T19:50:03.013Z,12.53
2023-01-18T19:52:32.743Z,12.63
2023-01-18T19:54:59.673Z,11.23
2023-01-18T19:57:26.977Z,12.23
2023-01-18T19:59:55.131Z,11.77
2023-01-18T20:02:23.449Z,11.83
2023-01-18T20:04:51.604Z,9.70
2023-01-18T20:07:20.978Z,9.17
2023-01-18T20:09:47.848Z,8.13
2023-01-18T20:12:14.583Z,11.33
2023-01-18T20:14:42.713Z,12.47
2023-01-18T20:17:10.942Z,11.53
2023-01-18T20:19:37.702Z,18.10
2023-01-18T20:22:04.514Z,24.83
2023-01-18T20:24:31.325Z,11.43
2023-01-18T20:27:07.254Z,18.07
2023-01-18T20:29:41.567Z,21.03
2023-01-18T20:32:15.513Z,15.83
2023-01-18T20:34:45.192Z,12.53
2023-01-18T20:37:12.325Z,8.47
2023-01-18T20:39:39.127Z,7.43
2023-01-18T20:42:05.870Z,6.93
2023-01-18T20:44:32.717Z,6.97
2023-01-18T20:46:59.422Z,6.97
2023-01-18T20:52:10.246Z,9.30
2023-01-18T20:54:36.959Z,10.03
2023-01-18T20:57:04.388Z,9.00
2023-01-18T20:59:35.085Z,9.20
2023-01-18T21:02:03.153Z,9.97
2023-01-18T21:04:29.957Z,9.97
2023-01-18T21:06:57.407Z,9.17
2023-01-18T21:09:24.429Z,7.13
2023-01-18T21:11:51.817Z,7.23
2023-01-18T21:14:18.997Z,7.37
2023-01-18T21:19:30.005Z,7.20
2023-01-18T21:21:56.648Z,6.70
2023-01-18T21:24:23.335Z,6.40
2023-01-18T21:26:49.945Z,7.00
2023-01-18T21:29:16.628Z,8.50
2023-01-18T21:31:43.315Z,9.00
2023-01-18T21:34:10.514Z,8.50
2023-01-18T21:39:30.218Z,8.63
2023-01-18T21:42:15.621Z,10.17
2023-01-18T21:45:00.719Z,9.73
2023-01-18T21:50:29.791Z,10.70
2023-01-18T21:53:14.884Z,10.37
2023-01-18T21:55:41.827Z,11.07
2023-01-18T22:01:12.629Z,10.93
2023-01-18T22:03:39.390Z,11.13
2023-01-18T22:06:06.122Z,10.17
2023-01-18T22:08:33.203Z,11.00
2023-01-18T22:11:00.481Z,11.40
2023-01-18T22:13:27.098Z,10.73
2023-01-18T22:15:53.943Z,11.33
2023-01-18T22:18:20.529Z,11.03
2023-01-18T22:20:54.470Z,10.93
2023-01-18T22:23:21.067Z,9.77
2023-01-18T22:25:48.155Z,10.53
2023-01-18T22:28:14.934Z,10.27
2023-01-18T22:30:41.902Z,11.30
2023-01-18T22:33:08.633Z,9.97
2023-01-18T22:35:35.302Z,10.73
2023-01-18T22:40:46.515Z,10.13
2023-01-18T22:43:13.111Z,9.83
2023-01-18T22:45:39.854Z,10.80
2023-01-18T22:48:06.557Z,9.53
2023-01-18T22:50:33.136Z,10.40
2023-01-18T22:52:59.701Z,10.80
2023-01-18T22:55:26.313Z,10.47
2023-01-18T22:57:53.118Z,10.23
2023-01-18T23:00:19.748Z,10.23
2023-01-18T23:02:46.937Z,10.57
2023-01-18T23:05:13.713Z,10.57
2023-01-18T23:07:40.361Z,10.93
2023-01-18T23:10:07.096Z,10.13
2023-01-18T23:15:36.162Z,10.60
2023-01-18T23:20:47.269Z,10.10
2023-01-18T23:25:57.808Z,10.03
2023-01-18T23:28:27.574Z,9.77
2023-01-18T23:30:54.679Z,9.37
2023-01-18T23:33:21.636Z,9.67
2023-01-18T23:35:48.487Z,9.73
2023-01-18T23:38:15.054Z,10.33
2023-01-18T23:44:02.863Z,10.43
2023-01-18T23:46:47.936Z,10.10
2023-01-18T23:49:32.958Z,10.00
2023-01-18T23:52:18.360Z,10.73
2023-01-18T23:54:44.937Z,11.93
2023-01-18T23:57:11.527Z,12.23
2023-01-18T23:59:41.522Z,13.20
